Terminal Aerodrome Forecast
Issued by NWS

Home | Current Version | Previous Version | Text Only | Print | Product List | Glossary On
Versions: 1 2 3 4 5 6 7 8 9 10 11 12 13 14 15 16
000
FTUS45 KGJT 251730
TAFMTJ
TAF
KMTJ 251730Z 2518/2618 33005KT P6SM SCT120
     FM252100 27007KT P6SM VCTS SCT080CB BKN150
     FM260100 18006KT P6SM VCTS SCT080CB BKN120
     FM260900 15004KT P6SM VCSH BKN060 BKN100
     FM261700 24004KT P6SM BKN130=

USA.gov is the U.S. government's official web portal to all federal, state and local government web resources and services.